TimeWET,TemperatureF,Dew PointF,Humidity,Sea Level PressureIn,VisibilityMPH,Wind Direction,Wind SpeedMPH,Gust SpeedMPH,PrecipitationIn,Events,Conditions,WindDirDegrees,DateUTC
6:00 AM,58,44,49,,12,WNW,4.6,,,,Clear,300,2013-03-09 06:00:00
6:00 AM,57.2,44.6,63,29.92,-9999.0,WNW,4.6,-,N/A,,Clear,300,2013-03-09 06:00:00
7:00 AM,59.0,42.8,55,29.95,-9999.0,East,2.3,-,N/A,,Clear,80,2013-03-09 07:00:00
8:00 AM,60.8,46.4,59,29.95,-9999.0,SE,4.6,-,N/A,,Clear,140,2013-03-09 08:00:00
9:00 AM,65,47,42,,16,ESE,11.5,,,,Clear,120,2013-03-09 09:00:00
9:00 AM,64.4,48.2,56,29.95,-9999.0,ESE,11.5,-,N/A,,Clear,120,2013-03-09 09:00:00
10:00 AM,66.2,46.4,49,29.98,-9999.0,SE,6.9,-,N/A,,Clear,140,2013-03-09 10:00:00
11:00 AM,68.0,44.6,43,29.98,-9999.0,SSW,4.6,-,N/A,,Clear,200,2013-03-09 11:00:00
12:00 PM,70,43,27,,16,SE,9.2,,,,Partly Cloudy,140,2013-03-09 12:00:00
12:00 PM,69.8,42.8,38,29.95,-9999.0,SE,9.2,-,N/A,,Clear,140,2013-03-09 12:00:00
1:00 PM,71.6,42.8,35,29.95,-9999.0,SE,9.2,-,N/A,,Mostly Cloudy,140,2013-03-09 13:00:00
2:00 PM,73.4,41.0,31,29.92,-9999.0,SSE,6.9,-,N/A,,Mostly Cloudy,160,2013-03-09 14:00:00
3:00 PM,74,40,19,,16,SSE,9.2,,,,Scattered Clouds,160,2013-03-09 15:00:00
3:00 PM,75.2,41.0,29,29.89,-9999.0,SSE,9.2,-,N/A,,Mostly Cloudy,160,2013-03-09 15:00:00
4:00 PM,73.4,39.2,29,29.89,-9999.0,ESE,6.9,-,N/A,,Mostly Cloudy,120,2013-03-09 16:00:00
5:00 PM,75.2,39.2,27,29.89,-9999.0,SE,6.9,-,N/A,,Scattered Clouds,140,2013-03-09 17:00:00
6:00 PM,74,38,17,,16,South,4.6,,,,Scattered Clouds,180,2013-03-09 18:00:00
6:00 PM,73.4,39.2,29,29.89,-9999.0,South,4.6,-,N/A,,Partly Cloudy,180,2013-03-09 18:00:00
9:00 PM,67,42,29,,9,Calm,Calm,,,,,,2013-03-09 21:00:00
9:00 PM,66.2,42.8,43,29.92,-9999.0,Calm,Calm,-,N/A,,Clear,0,2013-03-09 21:00:00